Time;durP1;ratioP1;P1;durP2;ratioP2;P2;SDS_P1;SDS_P2;PMS_P1;PMS_P2;Temp;Humidity;BMP_temperature;BMP_pressure;BME280_temperature;BME280_humidity;BME280_pressure;Samples;Min_cycle;Max_cycle;Signal;HPM_P1;HPM_P2
2022/07/21 00:01:10;;;;;;;;;;;;;;;12.02;100.00;99380.08;1761773;79;20095;-76
2022/07/21 00:03:37;;;;;;;;;;;;;;;12.03;100.00;99380.36;1770382;79;21331;-76
2022/07/21 00:06:05;;;;;;;;;;;;;;;12.03;100.00;99387.60;1783956;79;20420;-76
2022/07/21 00:08:31;;;;;;;;;;;;;;;11.99;100.00;99385.45;1768219;79;20083;-76
2022/07/21 00:10:58;;;;;;;;;;;;;;;11.95;100.00;99389.74;1764304;79;20565;-74
2022/07/21 00:13:24;;;;;;;;;;;;;;;11.91;100.00;99383.84;1774515;79;20123;-76
2022/07/21 00:15:52;;;;;;;;;;;;;;;11.88;100.00;99388.39;1788222;80;21628;-75
2022/07/21 00:18:19;;;;;;;;;;;;;;;11.83;100.00;99381.08;1759489;79;20101;-75
2022/07/21 00:20:46;;;;;;;;;;;;;;;11.80;100.00;99383.77;1789227;80;20085;-75
2022/07/21 00:23:13;;;;;;;;;;;;;;;11.77;100.00;99378.93;1768367;79;20072;-76
2022/07/21 00:25:41;;;;;;;;;;;;;;;11.74;100.00;99378.67;1760998;79;20126;-76
2022/07/21 00:28:07;;;;;;;;;;;;;;;11.72;100.00;99377.58;1748021;79;21191;-77
2022/07/21 00:30:34;;;;;;;;;;;;;;;11.67;100.00;99377.56;1753279;79;20119;-76
2022/07/21 00:33:02;;;;;;;;;;;;;;;11.62;100.00;99376.21;1769091;79;20163;-75
2022/07/21 00:35:29;;;;;;;;;;;;;;;11.56;100.00;99378.09;1784133;79;20418;-75
2022/07/21 00:37:56;;;;;;;;;;;;;;;11.53;100.00;99378.59;1759349;79;20468;-76
2022/07/21 00:40:22;;;;;;;;;;;;;;;11.53;100.00;99371.88;1776310;79;21808;-76
2022/07/21 00:42:49;;;;;;;;;;;;;;;11.51;100.00;99370.52;1773730;79;20088;-75
2022/07/21 00:45:17;;;;;;;;;;;;;;;11.52;100.00;99374.84;1765474;79;20215;-76
2022/07/21 00:47:44;;;;;;;;;;;;;;;11.49;100.00;99374.84;1764727;79;20432;-76
2022/07/21 00:50:14;;;;;;;;;;;;;;;11.51;100.00;99378.59;1788236;80;20096;-73
2022/07/21 00:52:41;;;;;;;;;;;;;;;11.54;100.00;99386.14;1758790;79;21630;-76
2022/07/21 00:55:10;;;;;;;;;;;;;;;11.48;100.00;99383.15;1777643;79;20080;-73
2022/07/21 00:57:36;;;;;;;;;;;;;;;11.43;100.00;99377.76;1754901;79;20115;-74
2022/07/21 01:00:06;;;;;;;;;;;;;;;11.40;100.00;99369.69;1784996;79;20119;-73
2022/07/21 01:02:36;;;;;;;;;;;;;;;11.36;100.00;99367.25;1758142;79;20210;-73
2022/07/21 01:05:01;;;;;;;;;;;;;;;11.35;100.00;99362.95;1766331;79;21137;-74
2022/07/21 01:07:29;;;;;;;;;;;;;;;11.33;100.00;99364.55;1782377;80;20480;-73
2022/07/21 01:09:56;;;;;;;;;;;;;;;11.29;100.00;99362.14;1774566;79;20447;-73
2022/07/21 01:12:23;;;;;;;;;;;;;;;11.26;100.00;99367.22;1759233;79;20083;-72
2022/07/21 01:14:50;;;;;;;;;;;;;;;11.24;100.00;99368.01;1761203;79;20084;-73
2022/07/21 01:17:17;;;;;;;;;;;;;;;11.22;100.00;99369.63;1787358;80;21559;-72
2022/07/21 01:19:45;;;;;;;;;;;;;;;11.20;100.00;99368.28;1773781;79;20121;-72
2022/07/21 01:22:12;;;;;;;;;;;;;;;11.22;100.00;99364.26;1791861;80;20100;-73
2022/07/21 01:24:38;;;;;;;;;;;;;;;11.20;100.00;99365.05;1786177;79;20141;-72
2022/07/21 01:27:05;;;;;;;;;;;;;;;11.21;100.00;99365.85;1782985;80;20084;-74
2022/07/21 01:29:32;;;;;;;;;;;;;;;11.19;100.00;99366.64;1778915;79;21136;-73
2022/07/21 01:31:58;;;;;;;;;;;;;;;11.16;100.00;99364.75;1782832;79;20093;-73
2022/07/21 01:34:25;;;;;;;;;;;;;;;11.14;100.00;99353.45;1784684;79;20120;-72
2022/07/21 01:36:51;;;;;;;;;;;;;;;11.14;100.00;99357.48;1789760;80;20442;-73
2022/07/21 01:42:03;;;;;;;;;;;;;;;11.16;100.00;99355.34;1786721;80;21256;-76
2022/07/21 01:44:30;;;;;;;;;;;;;;;11.16;100.00;99354.00;1781234;79;20098;-75
2022/07/21 01:46:56;;;;;;;;;;;;;;;11.19;100.00;99345.95;1786777;79;20460;-75
2022/07/21 01:49:22;;;;;;;;;;;;;;;11.15;100.00;99339.52;1776700;79;20217;-75
2022/07/21 01:51:49;;;;;;;;;;;;;;;11.20;100.00;99344.91;1759048;79;20084;-74
2022/07/21 01:54:16;;;;;;;;;;;;;;;11.16;100.00;99343.26;1777326;79;21236;-75
2022/07/21 01:56:43;;;;;;;;;;;;;;;11.17;100.00;99346.78;1750693;79;20095;-75
2022/07/21 01:59:10;;;;;;;;;;;;;;;11.18;100.00;99343.01;1758596;79;20111;-74
2022/07/21 02:01:36;;;;;;;;;;;;;;;11.18;100.00;99349.72;1754374;79;20296;-74
2022/07/21 02:04:04;;;;;;;;;;;;;;;11.18;100.00;99346.23;1786591;80;20116;-74
2022/07/21 02:06:32;;;;;;;;;;;;;;;11.13;100.00;99341.11;1763279;79;21191;-76
2022/07/21 02:08:59;;;;;;;;;;;;;;;11.09;100.00;99340.00;1777154;79;20092;-75
2022/07/21 02:11:25;;;;;;;;;;;;;;;11.09;100.00;99340.55;1771799;79;20141;-74
2022/07/21 02:13:52;;;;;;;;;;;;;;;11.10;100.00;99338.15;1790070;80;20445;-77
2022/07/21 02:16:19;;;;;;;;;;;;;;;11.07;100.00;99334.11;1772781;79;20186;-74
2022/07/21 02:18:46;;;;;;;;;;;;;;;11.05;100.00;99339.45;1765488;79;21772;-75
2022/07/21 02:21:12;;;;;;;;;;;;;;;11.04;100.00;99343.21;1767739;79;20225;-75
2022/07/21 02:23:38;;;;;;;;;;;;;;;11.02;100.00;99342.66;1758265;79;20104;-75
2022/07/21 02:26:05;;;;;;;;;;;;;;;10.97;100.00;99339.95;1765705;79;20449;-76
2022/07/21 02:28:32;;;;;;;;;;;;;;;10.97;100.00;99336.73;1760899;79;20124;-75
2022/07/21 02:30:59;;;;;;;;;;;;;;;10.98;100.00;99331.65;1782276;79;21126;-74
2022/07/21 02:33:25;;;;;;;;;;;;;;;11.02;100.00;99334.60;1780886;79;20409;-76
2022/07/21 02:35:52;;;;;;;;;;;;;;;11.03;100.00;99333.01;1762741;80;20451;-73
2022/07/21 02:38:19;;;;;;;;;;;;;;;11.09;100.00;99334.63;1790290;80;20314;-75
2022/07/21 02:40:46;;;;;;;;;;;;;;;11.11;100.00;99339.75;1764759;79;20104;-75
2022/07/21 02:43:12;;;;;;;;;;;;;;;11.12;100.00;99331.45;1776819;79;21254;-74
2022/07/21 02:45:41;;;;;;;;;;;;;;;11.12;100.00;99340.84;1786713;79;20092;-74
2022/07/21 02:48:10;;;;;;;;;;;;;;;11.18;100.00;99341.66;1766341;79;20083;-76
2022/07/21 02:50:40;;;;;;;;;;;;;;;11.28;100.00;99342.24;1776401;79;20096;-76
2022/07/21 02:53:08;;;;;;;;;;;;;;;11.39;100.00;99338.50;1765846;79;20088;-75
2022/07/21 02:55:36;;;;;;;;;;;;;;;11.49;100.00;99340.41;1760941;79;21860;-75
2022/07/21 02:58:13;;;;;;;;;;;;;;;11.59;100.00;99335.88;1789671;80;20112;-76
2022/07/21 03:00:43;;;;;;;;;;;;;;;11.72;100.00;99334.56;1790468;80;20120;-75
2022/07/21 03:03:10;;;;;;;;;;;;;;;11.87;100.00;99337.03;1772927;79;20089;-75
2022/07/21 03:05:36;;;;;;;;;;;;;;;11.98;100.00;99337.33;1781625;79;20140;-72
2022/07/21 03:08:03;;;;;;;;;;;;;;;12.15;100.00;99344.59;1694349;83;22144;-75
2022/07/21 03:10:30;;;;;;;;;;;;;;;12.28;100.00;99347.27;1750027;81;20071;-76
2022/07/21 03:12:57;;;;;;;;;;;;;;;12.42;100.00;99349.69;1732398;81;20126;-75
2022/07/21 03:15:25;;;;;;;;;;;;;;;12.56;100.00;99344.54;1719755;82;20420;-72
2022/07/21 03:17:53;;;;;;;;;;;;;;;12.67;100.00;99349.94;1705589;82;20198;-72
2022/07/21 03:20:23;;;;;;;;;;;;;;;12.80;100.00;99340.73;1708784;83;21253;-72
2022/07/21 03:22:49;;;;;;;;;;;;;;;12.94;100.00;99339.63;1712859;83;20097;-75
2022/07/21 03:25:16;;;;;;;;;;;;;;;13.08;100.00;99345.21;1715651;83;20082;-74
2022/07/21 03:27:44;;;;;;;;;;;;;;;13.22;100.00;99342.74;1700007;82;20282;-77
2022/07/21 03:30:13;;;;;;;;;;;;;;;13.36;100.00;99341.64;1707629;82;20136;-74
2022/07/21 03:32:40;;;;;;;;;;;;;;;13.50;100.00;99338.61;1701917;82;21185;-75
2022/07/21 03:35:08;;;;;;;;;;;;;;;13.63;100.00;99343.38;1706445;82;20093;-76
2022/07/21 03:37:43;;;;;;;;;;;;;;;13.76;100.00;99340.59;1720936;83;20074;-70
2022/07/21 03:40:11;;;;;;;;;;;;;;;13.86;100.00;99338.37;1720606;82;20150;-73
2022/07/21 03:42:38;;;;;;;;;;;;;;;13.96;100.00;99352.33;1714851;82;20081;-71
2022/07/21 03:45:06;;;;;;;;;;;;;;;14.06;100.00;99344.16;1711774;82;20766;-73
2022/07/21 03:47:32;;;;;;;;;;;;;;;14.17;100.00;99354.34;1714605;82;20130;-74
2022/07/21 03:49:59;;;;;;;;;;;;;;;14.42;100.00;99352.77;1708258;82;20126;-72
2022/07/21 03:52:26;;;;;;;;;;;;;;;14.57;100.00;99351.85;1713703;82;20126;-72
2022/07/21 03:55:07;;;;;;;;;;;;;;;14.74;100.00;99360.33;1712649;82;20513;-73
2022/07/21 03:57:25;;;;;;;;;;;;;;;14.84;100.00;99354.01;1706606;82;20134;-73
2022/07/21 03:59:52;;;;;;;;;;;;;;;14.98;100.00;99356.29;1714643;82;20094;-71
2022/07/21 04:02:18;;;;;;;;;;;;;;;15.20;100.00;99352.27;1714010;82;20139;-72
2022/07/21 04:04:46;;;;;;;;;;;;;;;15.27;100.00;99347.86;1717602;82;20203;-71
2022/07/21 04:07:12;;;;;;;;;;;;;;;15.39;100.00;99353.66;1720878;83;20085;-72
2022/07/21 04:09:40;;;;;;;;;;;;;;;15.57;100.00;99350.70;1705589;82;20172;-68
2022/07/21 04:12:08;;;;;;;;;;;;;;;15.72;100.00;99361.89;1714262;82;20142;-71
2022/07/21 04:14:35;;;;;;;;;;;;;;;15.98;100.00;99360.42;1714650;82;20135;-74
2022/07/21 04:17:02;;;;;;;;;;;;;;;16.08;100.00;99364.33;1718628;83;20660;-74
2022/07/21 04:19:29;;;;;;;;;;;;;;;16.18;100.00;99354.44;1717988;82;20411;-74
2022/07/21 04:21:55;;;;;;;;;;;;;;;16.25;100.00;99356.22;1716249;82;21182;-73
2022/07/21 04:24:21;;;;;;;;;;;;;;;16.52;100.00;99354.13;1713627;83;20430;-73
2022/07/21 04:26:48;;;;;;;;;;;;;;;16.69;100.00;99359.78;1712681;82;20151;-75
2022/07/21 04:29:16;;;;;;;;;;;;;;;16.88;100.00;99354.33;1716944;82;20114;-75
2022/07/21 04:31:42;;;;;;;;;;;;;;;17.08;100.00;99359.10;1721140;83;20188;-73
2022/07/21 04:34:09;;;;;;;;;;;;;;;17.34;100.00;99357.48;1715004;82;20933;-76
2022/07/21 04:36:35;;;;;;;;;;;;;;;17.53;100.00;99369.54;1702549;82;20244;-74
2022/07/21 04:39:02;;;;;;;;;;;;;;;17.81;100.00;99375.48;1711409;82;20083;-72
2022/07/21 04:41:30;;;;;;;;;;;;;;;17.97;100.00;99376.20;1714593;82;20152;-71
2022/07/21 04:43:56;;;;;;;;;;;;;;;17.80;100.00;99373.34;1714634;82;20165;-72
2022/07/21 04:46:23;;;;;;;;;;;;;;;17.92;100.00;99366.81;1717526;82;21708;-73
2022/07/21 04:48:50;;;;;;;;;;;;;;;18.08;100.00;99371.88;1709369;83;20435;-73
2022/07/21 04:51:17;;;;;;;;;;;;;;;18.17;100.00;99366.77;1717993;82;20427;-74
2022/07/21 04:53:43;;;;;;;;;;;;;;;18.47;100.00;99371.75;1714753;82;20212;-70
2022/07/21 04:56:09;;;;;;;;;;;;;;;18.86;96.72;99362.88;1711913;82;20130;-69
2022/07/21 04:58:36;;;;;;;;;;;;;;;18.64;94.91;99367.77;1702685;82;21229;-74
2022/07/21 05:01:03;;;;;;;;;;;;;;;18.50;99.87;99365.16;1702383;83;20510;-74
2022/07/21 05:03:30;;;;;;;;;;;;;;;18.95;100.00;99371.88;1714574;82;20146;-72
2022/07/21 05:05:57;;;;;;;;;;;;;;;19.17;94.24;99372.36;1704884;82;20118;-69
2022/07/21 05:08:26;;;;;;;;;;;;;;;19.02;89.95;99372.23;1720561;83;20412;-73
2022/07/21 05:10:54;;;;;;;;;;;;;;;19.19;92.10;99373.41;1714395;81;21451;-73
2022/07/21 05:13:20;;;;;;;;;;;;;;;19.23;88.80;99380.63;1711716;82;20113;-71
2022/07/21 05:15:47;;;;;;;;;;;;;;;19.41;87.73;99378.75;1714287;82;20109;-75
2022/07/21 05:18:14;;;;;;;;;;;;;;;19.57;87.78;99376.37;1702522;82;20451;-75
2022/07/21 05:20:42;;;;;;;;;;;;;;;19.93;81.30;99375.33;1709389;82;20150;-75
2022/07/21 05:23:08;;;;;;;;;;;;;;;20.10;78.93;99375.31;1722235;82;21267;-72
2022/07/21 05:25:35;;;;;;;;;;;;;;;20.34;79.60;99379.48;1716307;82;20158;-70
2022/07/21 05:28:05;;;;;;;;;;;;;;;20.58;70.36;99371.34;1714509;82;20145;-69
2022/07/21 05:30:32;;;;;;;;;;;;;;;20.31;71.40;99380.92;1711796;82;20081;-73
2022/07/21 05:32:59;;;;;;;;;;;;;;;20.25;74.05;99375.95;1714042;82;20477;-74
2022/07/21 05:35:25;;;;;;;;;;;;;;;20.33;72.31;99380.05;1706003;82;21219;-70
2022/07/21 05:37:52;;;;;;;;;;;;;;;20.33;74.74;99390.13;1720373;83;20122;-74
2022/07/21 05:40:18;;;;;;;;;;;;;;;20.54;71.26;99390.27;1717821;82;20447;-73
2022/07/21 05:42:45;;;;;;;;;;;;;;;20.43;72.24;99388.45;1706433;82;20224;-75
2022/07/21 05:45:11;;;;;;;;;;;;;;;20.38;75.10;99385.86;1706453;82;20142;-72
2022/07/21 05:47:39;;;;;;;;;;;;;;;20.78;70.91;99388.96;1705566;82;21756;-73
2022/07/21 05:50:07;;;;;;;;;;;;;;;21.38;70.10;99392.77;1705419;82;20467;-68
2022/07/21 05:52:34;;;;;;;;;;;;;;;21.29;67.07;99392.58;1715805;82;20156;-74
2022/07/21 05:55:00;;;;;;;;;;;;;;;20.95;67.07;99387.53;1717731;82;20106;-67
2022/07/21 05:57:28;;;;;;;;;;;;;;;20.88;68.53;99383.94;1706890;82;20134;-66
2022/07/21 05:59:54;;;;;;;;;;;;;;;20.57;67.71;99375.20;1719765;82;21205;-75
2022/07/21 06:02:22;;;;;;;;;;;;;;;20.73;70.19;99383.91;1713054;81;20456;-72
2022/07/21 06:04:48;;;;;;;;;;;;;;;20.87;68.28;99380.98;1713981;83;20109;-67
2022/07/21 06:07:15;;;;;;;;;;;;;;;21.00;67.92;99380.53;1717994;82;20281;-73
2022/07/21 06:09:42;;;;;;;;;;;;;;;21.47;65.62;99383.78;1686920;83;20086;-68
2022/07/21 06:12:10;;;;;;;;;;;;;;;21.33;63.98;99383.41;1720656;83;20765;-71
2022/07/21 06:14:37;;;;;;;;;;;;;;;21.62;62.63;99390.81;1714147;82;20491;-68
2022/07/21 06:17:04;;;;;;;;;;;;;;;21.39;62.96;99388.95;1714555;82;20126;-70
2022/07/21 06:19:32;;;;;;;;;;;;;;;21.28;63.94;99389.05;1711584;82;20621;-72
2022/07/21 06:21:59;;;;;;;;;;;;;;;21.60;66.84;99393.64;1705497;82;20110;-74
2022/07/21 06:24:26;;;;;;;;;;;;;;;22.00;64.02;99390.48;1702334;82;21250;-69
2022/07/21 06:26:55;;;;;;;;;;;;;;;22.04;59.25;99391.40;1713034;83;20137;-73
2022/07/21 06:29:22;;;;;;;;;;;;;;;22.01;60.20;99394.23;1714567;82;20103;-69
2022/07/21 06:31:49;;;;;;;;;;;;;;;21.69;58.96;99387.56;1718008;82;20428;-77
2022/07/21 06:34:16;;;;;;;;;;;;;;;21.74;61.03;99386.58;1720808;82;20221;-74
2022/07/21 06:36:43;;;;;;;;;;;;;;;21.70;58.87;99379.59;1720547;83;21259;-73
2022/07/21 06:39:12;;;;;;;;;;;;;;;21.57;59.95;99386.13;1711835;82;20171;-72
2022/07/21 06:41:39;;;;;;;;;;;;;;;21.88;58.97;99377.55;1714209;82;20480;-76
2022/07/21 06:44:08;;;;;;;;;;;;;;;22.07;59.97;99381.16;1712667;82;20086;-76
2022/07/21 06:46:34;;;;;;;;;;;;;;;22.31;58.55;99390.06;1717736;82;20166;-73
2022/07/21 06:49:02;;;;;;;;;;;;;;;22.24;57.61;99387.89;1708738;82;21139;-71
2022/07/21 06:51:29;;;;;;;;;;;;;;;22.31;58.46;99376.97;1718698;82;20082;-76
2022/07/21 06:53:55;;;;;;;;;;;;;;;22.67;57.04;99380.38;1712678;82;20161;-73
2022/07/21 06:56:22;;;;;;;;;;;;;;;22.76;57.78;99381.09;1721831;82;20636;-74
2022/07/21 06:58:49;;;;;;;;;;;;;;;22.78;56.68;99383.47;1723899;82;20772;-72
2022/07/21 07:01:16;;;;;;;;;;;;;;;22.38;53.79;99374.48;1722367;82;21121;-70
2022/07/21 07:03:43;;;;;;;;;;;;;;;22.28;56.04;99370.23;1715998;83;20105;-71
2022/07/21 07:06:10;;;;;;;;;;;;;;;22.79;55.97;99371.41;1725830;83;20188;-72
2022/07/21 07:08:38;;;;;;;;;;;;;;;22.93;53.56;99373.25;1724542;83;20588;-71
2022/07/21 07:11:06;;;;;;;;;;;;;;;22.86;53.31;99369.70;1733905;81;20431;-70
2022/07/21 07:13:32;;;;;;;;;;;;;;;23.01;52.65;99372.94;1726253;82;21210;-68
2022/07/21 07:16:00;;;;;;;;;;;;;;;22.75;53.47;99368.53;1702628;83;20081;-71
2022/07/21 07:18:27;;;;;;;;;;;;;;;22.51;53.20;99362.44;1733221;82;20070;-70
2022/07/21 07:20:53;;;;;;;;;;;;;;;22.84;54.38;99359.66;1734701;82;20170;-72
2022/07/21 07:23:21;;;;;;;;;;;;;;;22.81;52.15;99363.66;1707230;83;20098;-72
2022/07/21 07:25:48;;;;;;;;;;;;;;;22.76;52.92;99352.36;1680483;83;21380;-72
2022/07/21 07:28:16;;;;;;;;;;;;;;;22.65;52.33;99350.62;1697437;83;20110;-70
2022/07/21 07:30:44;;;;;;;;;;;;;;;22.34;52.34;99363.98;1704849;83;20089;-76
2022/07/21 07:33:10;;;;;;;;;;;;;;;22.73;51.51;99363.97;1720206;82;20111;-69
2022/07/21 07:35:37;;;;;;;;;;;;;;;22.95;53.29;99353.73;1727112;82;20414;-71
2022/07/21 07:38:04;;;;;;;;;;;;;;;23.26;49.05;99349.89;1730844;82;21262;-70
2022/07/21 07:40:31;;;;;;;;;;;;;;;23.13;50.48;99351.05;1725488;82;20518;-71
2022/07/21 07:42:58;;;;;;;;;;;;;;;23.43;50.19;99347.47;1730740;82;20123;-70
2022/07/21 07:45:25;;;;;;;;;;;;;;;23.45;50.82;99345.20;1702937;83;20105;-72
2022/07/21 07:47:51;;;;;;;;;;;;;;;23.42;48.64;99342.33;1665734;84;20172;-71
2022/07/21 07:50:18;;;;;;;;;;;;;;;23.17;48.72;99327.88;1671267;84;21183;-70
2022/07/21 07:52:45;;;;;;;;;;;;;;;22.94;50.29;99342.00;1680874;84;20130;-68
2022/07/21 07:55:12;;;;;;;;;;;;;;;22.88;50.20;99340.06;1670926;84;20088;-72
2022/07/21 07:57:42;;;;;;;;;;;;;;;22.75;49.71;99342.55;1685208;84;20217;-71
2022/07/21 08:00:11;;;;;;;;;;;;;;;22.86;49.88;99328.66;1684801;84;20140;-70
2022/07/21 08:02:39;;;;;;;;;;;;;;;23.01;49.85;99334.05;1691157;82;21301;-75
2022/07/21 08:05:08;;;;;;;;;;;;;;;23.28;51.62;99329.02;1691119;83;20133;-69
2022/07/21 08:07:37;;;;;;;;;;;;;;;23.42;53.00;99327.27;1698965;83;20123;-72
2022/07/21 08:10:08;;;;;;;;;;;;;;;23.12;49.80;99330.27;1687281;83;20146;-69
2022/07/21 08:12:35;;;;;;;;;;;;;;;23.30;49.79;99336.33;1697593;82;20107;-74
2022/07/21 08:15:02;;;;;;;;;;;;;;;23.29;49.86;99328.66;1695688;84;21255;-71
2022/07/21 08:17:29;;;;;;;;;;;;;;;23.58;48.38;99326.79;1694908;83;20086;-70
2022/07/21 08:19:56;;;;;;;;;;;;;;;23.66;47.77;99326.42;1679424;84;20103;-69
2022/07/21 08:22:23;;;;;;;;;;;;;;;23.40;48.76;99322.73;1697063;83;20101;-72
2022/07/21 08:24:49;;;;;;;;;;;;;;;23.48;47.44;99316.31;1712776;83;20105;-71
2022/07/21 08:27:17;;;;;;;;;;;;;;;23.35;47.92;99303.23;1687774;84;22136;-77
2022/07/21 08:29:46;;;;;;;;;;;;;;;23.56;48.89;99301.68;1672477;84;21122;-72
2022/07/21 08:32:12;;;;;;;;;;;;;;;23.41;47.62;99301.83;1687655;83;20634;-73
2022/07/21 08:34:39;;;;;;;;;;;;;;;23.30;48.48;99311.68;1692453;84;20417;-73
2022/07/21 08:37:06;;;;;;;;;;;;;;;23.39;47.37;99311.53;1682717;84;20108;-74
2022/07/21 08:39:32;;;;;;;;;;;;;;;23.58;49.41;99301.34;1694051;83;21169;-70
2022/07/21 08:41:59;;;;;;;;;;;;;;;23.68;47.18;99286.58;1671081;84;21595;-71
2022/07/21 08:44:26;;;;;;;;;;;;;;;23.73;47.11;99297.31;1692308;83;20145;-75
2022/07/21 08:46:52;;;;;;;;;;;;;;;23.87;47.67;99293.40;1685502;83;20095;-72
2022/07/21 08:49:21;;;;;;;;;;;;;;;23.66;46.58;99293.55;1715192;82;20127;-72
2022/07/21 08:51:51;;;;;;;;;;;;;;;23.79;47.13;99295.14;1734098;82;21119;-72
2022/07/21 08:54:20;;;;;;;;;;;;;;;23.95;46.55;99291.07;1730097;82;20126;-71
2022/07/21 08:56:47;;;;;;;;;;;;;;;24.00;46.28;99289.45;1735456;82;20479;-71
2022/07/21 08:59:14;;;;;;;;;;;;;;;24.38;47.16;99290.85;1739551;82;20591;-73
2022/07/21 09:01:40;;;;;;;;;;;;;;;24.41;46.31;99287.98;1705691;83;20109;-73
2022/07/21 09:04:21;;;;;;;;;;;;;;;24.59;45.13;99283.17;1726987;82;22159;-74
2022/07/21 09:06:56;;;;;;;;;;;;;;;24.88;46.21;99275.64;1714284;82;20128;-74
2022/07/21 09:09:25;;;;;;;;;;;;;;;24.87;45.16;99275.43;1743220;81;20123;-75
2022/07/21 09:11:52;;;;;;;;;;;;;;;24.63;45.84;99283.86;1727114;82;20420;-76
2022/07/21 09:14:21;;;;;;;;;;;;;;;24.69;46.46;99277.72;1700958;83;20097;-72
2022/07/21 09:16:54;;;;;;;;;;;;;;;24.60;45.73;99267.53;1725919;82;20854;-71
2022/07/21 09:19:24;;;;;;;;;;;;;;;24.36;46.68;99269.84;1704565;83;20085;-72
2022/07/21 09:21:52;;;;;;;;;;;;;;;24.18;46.17;99261.95;1702911;83;20106;-72
2022/07/21 09:24:26;;;;;;;;;;;;;;;24.22;47.05;99261.23;1740387;82;20143;-76
2022/07/21 09:27:08;;;;;;;;;;;;;;;24.30;47.46;99261.63;1745829;82;20099;-73
2022/07/21 09:29:38;;;;;;;;;;;;;;;24.46;46.69;99250.71;1736990;82;21258;-73
2022/07/21 09:32:27;;;;;;;;;;;;;;;24.52;47.11;99258.33;1711895;83;20121;-74
2022/07/21 09:35:04;;;;;;;;;;;;;;;24.81;47.71;99261.16;1765938;80;20092;-75
2022/07/21 09:37:32;;;;;;;;;;;;;;;24.78;46.61;99257.77;1779157;80;20073;-74
2022/07/21 09:40:06;;;;;;;;;;;;;;;24.69;46.89;99242.05;1778999;80;20162;-74
2022/07/21 09:42:33;;;;;;;;;;;;;;;24.65;45.31;99256.86;1770951;80;21970;-74
2022/07/21 09:45:06;;;;;;;;;;;;;;;24.30;46.82;99243.80;1766554;80;20097;-73
2022/07/21 09:47:32;;;;;;;;;;;;;;;24.17;46.80;99241.14;1743498;80;20096;-72
2022/07/21 09:49:59;;;;;;;;;;;;;;;24.28;45.76;99242.02;1678357;83;20109;-71
2022/07/21 09:52:32;;;;;;;;;;;;;;;24.81;47.14;99242.53;1697532;83;20125;-72
2022/07/21 09:55:07;;;;;;;;;;;;;;;25.00;46.44;99240.42;1673185;83;21184;-77
2022/07/21 09:57:34;;;;;;;;;;;;;;;24.90;47.08;99239.61;1698116;83;20163;-73
2022/07/21 10:00:03;;;;;;;;;;;;;;;25.09;45.17;99232.00;1720606;82;20132;-75
2022/07/21 10:02:31;;;;;;;;;;;;;;;25.29;46.42;99235.59;1690662;83;20099;-77
2022/07/21 10:05:08;;;;;;;;;;;;;;;25.21;45.82;99234.06;1719783;83;20167;-73
2022/07/21 10:07:39;;;;;;;;;;;;;;;25.26;44.80;99230.80;1714474;81;20907;-73
2022/07/21 10:10:06;;;;;;;;;;;;;;;25.03;45.44;99224.59;1699084;82;20429;-68
2022/07/21 10:12:34;;;;;;;;;;;;;;;25.13;45.33;99219.91;1706792;83;20570;-71
2022/07/21 10:15:00;;;;;;;;;;;;;;;24.90;45.33;99215.69;1703139;83;20122;-75
2022/07/21 10:17:29;;;;;;;;;;;;;;;24.87;46.16;99227.39;1695347;83;20101;-74
2022/07/21 10:20:28;;;;;;;;;;;;;;;24.92;44.79;99214.77;1701162;83;21169;-75
2022/07/21 10:23:29;;;;;;;;;;;;;;;24.96;45.18;99212.08;1696728;83;20094;-73
2022/07/21 10:25:56;;;;;;;;;;;;;;;25.09;44.75;99221.02;1721396;82;20111;-71
2022/07/21 10:28:24;;;;;;;;;;;;;;;25.03;44.39;99214.41;1692673;83;20129;-72
2022/07/21 10:30:53;;;;;;;;;;;;;;;24.87;44.45;99206.81;1720073;83;20146;-73
2022/07/21 10:33:22;;;;;;;;;;;;;;;25.07;45.15;99226.06;1698825;83;21801;-72
2022/07/21 10:35:50;;;;;;;;;;;;;;;25.07;44.24;99221.36;1693655;83;20109;-73
2022/07/21 10:38:32;;;;;;;;;;;;;;;25.37;45.17;99225.75;1704286;83;20102;-73
2022/07/21 10:41:00;;;;;;;;;;;;;;;25.36;46.06;99210.44;1697591;83;20584;-70
2022/07/21 10:43:30;;;;;;;;;;;;;;;25.66;44.46;99216.72;1703221;83;20143;-73
2022/07/21 10:45:58;;;;;;;;;;;;;;;25.44;42.96;99227.27;1717478;83;21225;-72
2022/07/21 10:48:41;;;;;;;;;;;;;;;25.31;44.08;99223.09;1706751;83;20097;-72
2022/07/21 10:51:10;;;;;;;;;;;;;;;25.12;45.51;99210.68;1700796;83;20109;-75
2022/07/21 10:53:39;;;;;;;;;;;;;;;25.36;44.41;99195.33;1716827;83;20121;-73
2022/07/21 10:56:06;;;;;;;;;;;;;;;25.35;44.65;99199.22;1719890;83;20121;-72
2022/07/21 10:58:38;;;;;;;;;;;;;;;25.36;43.95;99202.20;1718311;83;21311;-76
2022/07/21 11:01:24;;;;;;;;;;;;;;;25.55;44.14;99211.58;1711558;83;20101;-74
2022/07/21 11:04:11;;;;;;;;;;;;;;;25.22;43.67;99197.78;1714633;83;20093;-73
2022/07/21 11:06:39;;;;;;;;;;;;;;;25.38;43.94;99198.52;1732791;81;20901;-74
2022/07/21 11:09:09;;;;;;;;;;;;;;;25.36;44.67;99197.28;1725097;82;20477;-77
2022/07/21 11:11:49;;;;;;;;;;;;;;;25.45;44.43;99191.80;1771050;80;21918;-73
2022/07/21 11:14:18;;;;;;;;;;;;;;;25.37;44.31;99165.90;1743087;80;20290;-72
2022/07/21 11:16:52;;;;;;;;;;;;;;;25.64;46.57;99198.41;1764345;80;20125;-72
2022/07/21 11:19:40;;;;;;;;;;;;;;;25.48;44.21;99197.69;1779997;80;20101;-71
2022/07/21 11:22:10;;;;;;;;;;;;;;;25.39;45.69;99200.09;1767653;80;20119;-74
2022/07/21 11:24:40;;;;;;;;;;;;;;;25.34;44.06;99202.34;1763843;80;21077;-74
2022/07/21 11:27:12;;;;;;;;;;;;;;;25.58;45.92;99192.42;1766059;80;20097;-73
2022/07/21 11:29:41;;;;;;;;;;;;;;;25.63;44.46;99194.09;1760178;80;20069;-74
2022/07/21 11:32:07;;;;;;;;;;;;;;;25.71;43.23;99188.94;1739755;80;20104;-75
2022/07/21 11:35:02;;;;;;;;;;;;;;;25.81;44.94;99191.08;1761016;80;20131;-71
2022/07/21 11:37:34;;;;;;;;;;;;;;;26.03;45.05;99187.38;1757333;80;21117;-70
2022/07/21 11:40:01;;;;;;;;;;;;;;;26.24;44.50;99189.12;1777587;80;20088;-72
2022/07/21 11:42:30;;;;;;;;;;;;;;;26.17;43.66;99189.00;1782051;80;20096;-72
2022/07/21 11:44:56;;;;;;;;;;;;;;;26.28;44.58;99190.55;1775915;80;20100;-68
2022/07/21 11:47:26;;;;;;;;;;;;;;;25.97;43.77;99179.20;1734541;81;20146;-73
2022/07/21 11:49:54;;;;;;;;;;;;;;;26.01;44.92;99177.31;1739060;82;22188;-71
2022/07/21 11:52:26;;;;;;;;;;;;;;;25.87;43.96;99173.17;1723715;82;20437;-72
2022/07/21 11:54:55;;;;;;;;;;;;;;;26.07;44.45;99164.28;1735853;81;20119;-73
2022/07/21 11:57:22;;;;;;;;;;;;;;;26.20;44.27;99153.09;1739901;82;20095;-71
2022/07/21 11:59:50;;;;;;;;;;;;;;;26.17;43.82;99169.75;1745292;81;20090;-72
2022/07/21 12:02:19;;;;;;;;;;;;;;;26.19;44.65;99172.92;1738958;82;21078;-70
2022/07/21 12:04:56;;;;;;;;;;;;;;;26.28;45.25;99162.45;1726363;82;20099;-70
2022/07/21 12:07:40;;;;;;;;;;;;;;;26.49;44.86;99163.96;1738676;82;20120;-71
2022/07/21 12:10:19;;;;;;;;;;;;;;;26.37;43.85;99159.45;1733914;82;20092;-70
2022/07/21 12:12:46;;;;;;;;;;;;;;;26.19;43.10;99150.92;1735112;82;20124;-68
2022/07/21 12:15:19;;;;;;;;;;;;;;;26.00;45.31;99171.62;1738447;82;20178;-69
2022/07/21 12:17:51;;;;;;;;;;;;;;;25.79;44.64;99153.53;1731998;81;20093;-73
2022/07/21 12:20:33;;;;;;;;;;;;;;;25.91;45.35;99155.94;1732238;81;20115;-74
2022/07/21 12:23:01;;;;;;;;;;;;;;;25.90;45.10;99157.90;1751725;81;20091;-69
2022/07/21 12:25:36;;;;;;;;;;;;;;;25.91;43.99;99158.09;1748784;81;20099;-70
2022/07/21 12:28:05;;;;;;;;;;;;;;;25.85;45.14;99154.05;1744081;81;21272;-70
2022/07/21 12:30:44;;;;;;;;;;;;;;;26.18;45.02;99159.53;1750758;82;20095;-72
2022/07/21 12:33:18;;;;;;;;;;;;;;;26.10;45.28;99161.38;1744844;82;20196;-74
2022/07/21 12:35:49;;;;;;;;;;;;;;;26.06;44.34;99155.02;1722150;81;20125;-72
2022/07/21 12:38:16;;;;;;;;;;;;;;;26.16;45.64;99158.52;1688077;82;20099;-71
2022/07/21 12:40:46;;;;;;;;;;;;;;;26.19;45.73;99154.23;1710228;82;21785;-73
2022/07/21 12:43:17;;;;;;;;;;;;;;;25.81;44.42;99123.73;1716186;82;20125;-74
2022/07/21 12:46:02;;;;;;;;;;;;;;;26.05;45.51;99136.94;1722798;83;20145;-71
2022/07/21 12:48:33;;;;;;;;;;;;;;;26.29;45.63;99139.87;1712211;82;20137;-73
2022/07/21 12:51:13;;;;;;;;;;;;;;;26.38;44.95;99127.22;1710485;82;20097;-72
2022/07/21 12:53:47;;;;;;;;;;;;;;;26.45;43.59;99127.33;1686894;82;20082;-70